sensor_id;sensor_type;location;lat;lon;timestamp;P1;durP1;ratioP1;P2;durP2;ratioP2
49296;SDS011;35163;48.878;18.040;2022-07-23T00:00:12;28.45;;;10.70;;
49296;SDS011;35163;48.878;18.040;2022-07-23T00:02:39;20.10;;;9.18;;
49296;SDS011;35163;48.878;18.040;2022-07-23T00:05:06;16.27;;;8.10;;
49296;SDS011;35163;48.878;18.040;2022-07-23T00:07:34;14.93;;;8.90;;
49296;SDS011;35163;48.878;18.040;2022-07-23T00:10:00;16.33;;;9.02;;
49296;SDS011;35163;48.878;18.040;2022-07-23T00:12:27;16.55;;;10.63;;
49296;SDS011;35163;48.878;18.040;2022-07-23T00:14:54;23.75;;;12.00;;
49296;SDS011;35163;48.878;18.040;2022-07-23T00:17:20;21.45;;;12.60;;
49296;SDS011;35163;48.878;18.040;2022-07-23T00:19:47;17.77;;;10.80;;
49296;SDS011;35163;48.878;18.040;2022-07-23T00:22:14;16.25;;;9.63;;
49296;SDS011;35163;48.878;18.040;2022-07-23T00:24:40;16.75;;;9.30;;
49296;SDS011;35163;48.878;18.040;2022-07-23T00:27:07;18.38;;;9.50;;
49296;SDS011;35163;48.878;18.040;2022-07-23T00:29:34;17.17;;;9.30;;
49296;SDS011;35163;48.878;18.040;2022-07-23T00:32:00;16.90;;;9.02;;
49296;SDS011;35163;48.878;18.040;2022-07-23T00:34:27;19.55;;;9.38;;
49296;SDS011;35163;48.878;18.040;2022-07-23T00:36:54;16.13;;;8.90;;
49296;SDS011;35163;48.878;18.040;2022-07-23T00:39:20;17.85;;;9.45;;
49296;SDS011;35163;48.878;18.040;2022-07-23T00:41:48;17.33;;;9.50;;
49296;SDS011;35163;48.878;18.040;2022-07-23T00:46:47;14.73;;;8.32;;
49296;SDS011;35163;48.878;18.040;2022-07-23T00:49:16;15.73;;;9.13;;
49296;SDS011;35163;48.878;18.040;2022-07-23T00:51:42;15.55;;;8.48;;
49296;SDS011;35163;48.878;18.040;2022-07-23T00:54:09;15.90;;;8.20;;
49296;SDS011;35163;48.878;18.040;2022-07-23T00:56:36;15.10;;;9.45;;
49296;SDS011;35163;48.878;18.040;2022-07-23T00:59:04;17.15;;;8.77;;
49296;SDS011;35163;48.878;18.040;2022-07-23T01:01:32;14.52;;;8.23;;
49296;SDS011;35163;48.878;18.040;2022-07-23T01:03:59;14.48;;;8.63;;
49296;SDS011;35163;48.878;18.040;2022-07-23T01:06:26;15.60;;;8.90;;
49296;SDS011;35163;48.878;18.040;2022-07-23T01:08:56;16.45;;;10.02;;
49296;SDS011;35163;48.878;18.040;2022-07-23T01:11:23;15.88;;;9.82;;
49296;SDS011;35163;48.878;18.040;2022-07-23T01:13:50;17.20;;;9.68;;
49296;SDS011;35163;48.878;18.040;2022-07-23T01:16:17;17.75;;;9.65;;
49296;SDS011;35163;48.878;18.040;2022-07-23T01:18:44;16.75;;;9.63;;
49296;SDS011;35163;48.878;18.040;2022-07-23T01:21:11;18.20;;;9.50;;
49296;SDS011;35163;48.878;18.040;2022-07-23T01:23:41;15.20;;;9.75;;
49296;SDS011;35163;48.878;18.040;2022-07-23T01:26:08;15.90;;;10.13;;
49296;SDS011;35163;48.878;18.040;2022-07-23T01:28:36;18.02;;;9.52;;
49296;SDS011;35163;48.878;18.040;2022-07-23T01:31:03;16.70;;;9.52;;
49296;SDS011;35163;48.878;18.040;2022-07-23T01:33:30;15.48;;;10.18;;
49296;SDS011;35163;48.878;18.040;2022-07-23T01:35:59;15.45;;;9.23;;
49296;SDS011;35163;48.878;18.040;2022-07-23T01:38:26;15.70;;;9.57;;
49296;SDS011;35163;48.878;18.040;2022-07-23T01:40:53;14.02;;;9.35;;
49296;SDS011;35163;48.878;18.040;2022-07-23T01:43:20;21.75;;;10.55;;
49296;SDS011;35163;48.878;18.040;2022-07-23T01:45:50;17.02;;;9.25;;
49296;SDS011;35163;48.878;18.040;2022-07-23T01:48:17;19.95;;;10.20;;
49296;SDS011;35163;48.878;18.040;2022-07-23T01:50:45;16.83;;;9.60;;
49296;SDS011;35163;48.878;18.040;2022-07-23T01:53:13;15.68;;;9.90;;
49296;SDS011;35163;48.878;18.040;2022-07-23T01:55:41;14.52;;;9.95;;
49296;SDS011;35163;48.878;18.040;2022-07-23T01:58:08;18.55;;;9.27;;
49296;SDS011;35163;48.878;18.040;2022-07-23T02:00:35;19.58;;;9.65;;
49296;SDS011;35163;48.878;18.040;2022-07-23T02:03:02;15.50;;;9.65;;
49296;SDS011;35163;48.878;18.040;2022-07-23T02:05:28;13.18;;;8.55;;
49296;SDS011;35163;48.878;18.040;2022-07-23T02:07:56;13.70;;;9.50;;
49296;SDS011;35163;48.878;18.040;2022-07-23T02:10:23;17.23;;;9.57;;
49296;SDS011;35163;48.878;18.040;2022-07-23T02:12:50;15.98;;;9.55;;
49296;SDS011;35163;48.878;18.040;2022-07-23T02:15:16;18.45;;;9.90;;
49296;SDS011;35163;48.878;18.040;2022-07-23T02:17:43;17.98;;;10.63;;
49296;SDS011;35163;48.878;18.040;2022-07-23T02:20:10;16.30;;;9.60;;
49296;SDS011;35163;48.878;18.040;2022-07-23T02:22:37;15.82;;;9.35;;
49296;SDS011;35163;48.878;18.040;2022-07-23T02:25:05;17.05;;;10.32;;
49296;SDS011;35163;48.878;18.040;2022-07-23T02:27:33;18.15;;;9.77;;
49296;SDS011;35163;48.878;18.040;2022-07-23T02:30:00;16.90;;;9.75;;
49296;SDS011;35163;48.878;18.040;2022-07-23T02:32:27;14.98;;;9.65;;
49296;SDS011;35163;48.878;18.040;2022-07-23T02:34:54;14.95;;;9.25;;
49296;SDS011;35163;48.878;18.040;2022-07-23T02:37:21;18.90;;;10.68;;
49296;SDS011;35163;48.878;18.040;2022-07-23T02:39:48;18.23;;;10.13;;
49296;SDS011;35163;48.878;18.040;2022-07-23T02:42:15;16.80;;;9.77;;
49296;SDS011;35163;48.878;18.040;2022-07-23T02:44:42;21.80;;;11.05;;
49296;SDS011;35163;48.878;18.040;2022-07-23T02:47:08;22.02;;;9.77;;
49296;SDS011;35163;48.878;18.040;2022-07-23T02:49:35;16.70;;;9.70;;
49296;SDS011;35163;48.878;18.040;2022-07-23T02:52:02;19.75;;;10.50;;
49296;SDS011;35163;48.878;18.040;2022-07-23T02:54:29;17.02;;;9.75;;
49296;SDS011;35163;48.878;18.040;2022-07-23T02:56:56;16.05;;;9.43;;
49296;SDS011;35163;48.878;18.040;2022-07-23T02:59:22;13.63;;;9.13;;
49296;SDS011;35163;48.878;18.040;2022-07-23T03:01:49;15.75;;;8.68;;
49296;SDS011;35163;48.878;18.040;2022-07-23T03:04:16;14.18;;;9.60;;
49296;SDS011;35163;48.878;18.040;2022-07-23T03:06:42;15.07;;;9.95;;
49296;SDS011;35163;48.878;18.040;2022-07-23T03:09:09;16.52;;;9.85;;
49296;SDS011;35163;48.878;18.040;2022-07-23T03:11:36;19.60;;;10.35;;
49296;SDS011;35163;48.878;18.040;2022-07-23T03:14:02;18.40;;;10.52;;
49296;SDS011;35163;48.878;18.040;2022-07-23T03:16:29;17.90;;;10.23;;
49296;SDS011;35163;48.878;18.040;2022-07-23T03:18:56;17.67;;;10.13;;
49296;SDS011;35163;48.878;18.040;2022-07-23T03:21:23;16.80;;;10.27;;
49296;SDS011;35163;48.878;18.040;2022-07-23T03:23:49;18.15;;;10.05;;
49296;SDS011;35163;48.878;18.040;2022-07-23T03:26:16;15.10;;;10.38;;
49296;SDS011;35163;48.878;18.040;2022-07-23T03:28:43;25.73;;;10.73;;
49296;SDS011;35163;48.878;18.040;2022-07-23T03:31:09;16.45;;;9.80;;
49296;SDS011;35163;48.878;18.040;2022-07-23T03:33:36;15.55;;;10.02;;
49296;SDS011;35163;48.878;18.040;2022-07-23T03:36:03;16.80;;;9.65;;
49296;SDS011;35163;48.878;18.040;2022-07-23T03:38:34;17.40;;;9.02;;
49296;SDS011;35163;48.878;18.040;2022-07-23T03:41:01;20.77;;;10.32;;
49296;SDS011;35163;48.878;18.040;2022-07-23T03:43:28;18.83;;;10.02;;
49296;SDS011;35163;48.878;18.040;2022-07-23T03:45:54;13.85;;;9.73;;
49296;SDS011;35163;48.878;18.040;2022-07-23T03:48:21;17.95;;;9.82;;
49296;SDS011;35163;48.878;18.040;2022-07-23T03:50:48;15.55;;;9.98;;
49296;SDS011;35163;48.878;18.040;2022-07-23T03:53:14;15.05;;;9.60;;
49296;SDS011;35163;48.878;18.040;2022-07-23T03:55:41;16.10;;;10.25;;
49296;SDS011;35163;48.878;18.040;2022-07-23T03:58:08;16.08;;;9.65;;
49296;SDS011;35163;48.878;18.040;2022-07-23T04:00:34;23.90;;;10.05;;
49296;SDS011;35163;48.878;18.040;2022-07-23T04:03:01;14.98;;;9.55;;
49296;SDS011;35163;48.878;18.040;2022-07-23T04:05:28;14.95;;;9.15;;
49296;SDS011;35163;48.878;18.040;2022-07-23T04:07:55;15.02;;;10.13;;
49296;SDS011;35163;48.878;18.040;2022-07-23T04:10:21;14.77;;;9.68;;
49296;SDS011;35163;48.878;18.040;2022-07-23T04:12:48;13.73;;;9.23;;
49296;SDS011;35163;48.878;18.040;2022-07-23T04:15:15;16.83;;;9.40;;
49296;SDS011;35163;48.878;18.040;2022-07-23T04:17:41;18.83;;;9.88;;
49296;SDS011;35163;48.878;18.040;2022-07-23T04:20:10;15.77;;;10.07;;
49296;SDS011;35163;48.878;18.040;2022-07-23T04:22:37;16.63;;;10.23;;
49296;SDS011;35163;48.878;18.040;2022-07-23T04:25:04;15.57;;;9.70;;
49296;SDS011;35163;48.878;18.040;2022-07-23T04:27:31;17.02;;;9.93;;
49296;SDS011;35163;48.878;18.040;2022-07-23T04:29:59;16.33;;;10.25;;
49296;SDS011;35163;48.878;18.040;2022-07-23T04:32:26;15.00;;;9.63;;
49296;SDS011;35163;48.878;18.040;2022-07-23T04:34:53;16.63;;;9.57;;
49296;SDS011;35163;48.878;18.040;2022-07-23T04:37:19;15.15;;;9.63;;
49296;SDS011;35163;48.878;18.040;2022-07-23T04:39:46;15.93;;;10.13;;
49296;SDS011;35163;48.878;18.040;2022-07-23T04:42:12;19.27;;;10.15;;
49296;SDS011;35163;48.878;18.040;2022-07-23T04:44:39;15.38;;;9.13;;
49296;SDS011;35163;48.878;18.040;2022-07-23T04:47:06;16.95;;;9.95;;
49296;SDS011;35163;48.878;18.040;2022-07-23T04:49:33;17.35;;;10.88;;
49296;SDS011;35163;48.878;18.040;2022-07-23T04:51:59;20.80;;;10.50;;
49296;SDS011;35163;48.878;18.040;2022-07-23T04:54:26;17.30;;;9.77;;
49296;SDS011;35163;48.878;18.040;2022-07-23T04:56:53;15.15;;;9.88;;
49296;SDS011;35163;48.878;18.040;2022-07-23T04:59:19;14.82;;;9.75;;
49296;SDS011;35163;48.878;18.040;2022-07-23T05:01:46;23.55;;;10.15;;
49296;SDS011;35163;48.878;18.040;2022-07-23T05:04:13;17.90;;;10.02;;
49296;SDS011;35163;48.878;18.040;2022-07-23T05:06:39;16.30;;;9.93;;
49296;SDS011;35163;48.878;18.040;2022-07-23T05:09:06;16.38;;;9.38;;
49296;SDS011;35163;48.878;18.040;2022-07-23T05:11:33;17.95;;;9.80;;
49296;SDS011;35163;48.878;18.040;2022-07-23T05:13:59;13.57;;;9.10;;
49296;SDS011;35163;48.878;18.040;2022-07-23T05:16:26;18.65;;;10.02;;
49296;SDS011;35163;48.878;18.040;2022-07-23T05:18:53;16.00;;;9.15;;
49296;SDS011;35163;48.878;18.040;2022-07-23T05:21:20;16.77;;;9.35;;
49296;SDS011;35163;48.878;18.040;2022-07-23T05:23:46;17.15;;;9.68;;
49296;SDS011;35163;48.878;18.040;2022-07-23T05:26:13;18.75;;;9.60;;
49296;SDS011;35163;48.878;18.040;2022-07-23T05:28:40;16.33;;;9.15;;
49296;SDS011;35163;48.878;18.040;2022-07-23T05:31:13;15.43;;;9.80;;
49296;SDS011;35163;48.878;18.040;2022-07-23T05:33:39;16.00;;;9.98;;
49296;SDS011;35163;48.878;18.040;2022-07-23T05:36:06;14.35;;;8.65;;
49296;SDS011;35163;48.878;18.040;2022-07-23T05:38:33;12.35;;;9.13;;
49296;SDS011;35163;48.878;18.040;2022-07-23T05:41:00;15.07;;;9.38;;
49296;SDS011;35163;48.878;18.040;2022-07-23T05:43:27;13.75;;;9.23;;
49296;SDS011;35163;48.878;18.040;2022-07-23T05:45:54;14.43;;;9.60;;
49296;SDS011;35163;48.878;18.040;2022-07-23T05:48:21;16.83;;;9.45;;
49296;SDS011;35163;48.878;18.040;2022-07-23T05:50:48;13.55;;;8.80;;
49296;SDS011;35163;48.878;18.040;2022-07-23T05:53:14;16.35;;;8.80;;
49296;SDS011;35163;48.878;18.040;2022-07-23T05:55:41;15.82;;;9.02;;
49296;SDS011;35163;48.878;18.040;2022-07-23T05:58:08;15.80;;;9.23;;
49296;SDS011;35163;48.878;18.040;2022-07-23T06:00:35;14.70;;;8.93;;
49296;SDS011;35163;48.878;18.040;2022-07-23T06:03:01;20.98;;;9.95;;
49296;SDS011;35163;48.878;18.040;2022-07-23T06:05:28;18.70;;;9.07;;
49296;SDS011;35163;48.878;18.040;2022-07-23T06:07:55;13.07;;;8.80;;
49296;SDS011;35163;48.878;18.040;2022-07-23T06:10:22;14.07;;;8.65;;
49296;SDS011;35163;48.878;18.040;2022-07-23T06:12:48;18.00;;;8.70;;
49296;SDS011;35163;48.878;18.040;2022-07-23T06:15:15;18.70;;;9.05;;
49296;SDS011;35163;48.878;18.040;2022-07-23T06:17:41;15.38;;;8.07;;
49296;SDS011;35163;48.878;18.040;2022-07-23T06:20:09;14.73;;;9.10;;
49296;SDS011;35163;48.878;18.040;2022-07-23T06:22:36;20.38;;;9.82;;
49296;SDS011;35163;48.878;18.040;2022-07-23T06:25:03;14.70;;;8.57;;
49296;SDS011;35163;48.878;18.040;2022-07-23T06:27:37;14.23;;;8.02;;
49296;SDS011;35163;48.878;18.040;2022-07-23T06:30:04;16.42;;;8.25;;
49296;SDS011;35163;48.878;18.040;2022-07-23T06:32:31;15.82;;;8.65;;
49296;SDS011;35163;48.878;18.040;2022-07-23T06:34:58;12.32;;;7.82;;
49296;SDS011;35163;48.878;18.040;2022-07-23T06:37:25;15.43;;;7.80;;
49296;SDS011;35163;48.878;18.040;2022-07-23T06:39:52;11.95;;;7.80;;
49296;SDS011;35163;48.878;18.040;2022-07-23T06:42:19;13.88;;;7.65;;
49296;SDS011;35163;48.878;18.040;2022-07-23T06:44:46;14.15;;;7.85;;
49296;SDS011;35163;48.878;18.040;2022-07-23T06:47:12;17.75;;;8.77;;
49296;SDS011;35163;48.878;18.040;2022-07-23T06:49:39;17.52;;;8.13;;
49296;SDS011;35163;48.878;18.040;2022-07-23T06:52:07;24.40;;;9.02;;
49296;SDS011;35163;48.878;18.040;2022-07-23T06:54:34;16.23;;;8.52;;
49296;SDS011;35163;48.878;18.040;2022-07-23T06:57:01;17.25;;;8.25;;
49296;SDS011;35163;48.878;18.040;2022-07-23T06:59:27;19.50;;;8.82;;
49296;SDS011;35163;48.878;18.040;2022-07-23T07:01:54;16.52;;;8.82;;
49296;SDS011;35163;48.878;18.040;2022-07-23T07:04:21;17.80;;;9.07;;
49296;SDS011;35163;48.878;18.040;2022-07-23T07:06:48;16.98;;;8.77;;
49296;SDS011;35163;48.878;18.040;2022-07-23T07:09:14;18.35;;;9.13;;
49296;SDS011;35163;48.878;18.040;2022-07-23T07:11:41;17.42;;;8.38;;
49296;SDS011;35163;48.878;18.040;2022-07-23T07:14:07;16.90;;;8.88;;
49296;SDS011;35163;48.878;18.040;2022-07-23T07:16:34;14.23;;;8.02;;
49296;SDS011;35163;48.878;18.040;2022-07-23T07:19:01;14.40;;;8.30;;
49296;SDS011;35163;48.878;18.040;2022-07-23T07:21:28;13.50;;;7.90;;
49296;SDS011;35163;48.878;18.040;2022-07-23T07:23:55;14.70;;;8.27;;
49296;SDS011;35163;48.878;18.040;2022-07-23T07:26:22;14.88;;;9.05;;
49296;SDS011;35163;48.878;18.040;2022-07-23T07:28:49;16.45;;;8.70;;
49296;SDS011;35163;48.878;18.040;2022-07-23T07:31:15;21.70;;;9.27;;
49296;SDS011;35163;48.878;18.040;2022-07-23T07:33:42;22.98;;;8.90;;
49296;SDS011;35163;48.878;18.040;2022-07-23T07:36:10;17.95;;;9.07;;
49296;SDS011;35163;48.878;18.040;2022-07-23T07:38:44;16.02;;;8.93;;
49296;SDS011;35163;48.878;18.040;2022-07-23T07:41:10;13.55;;;8.65;;
49296;SDS011;35163;48.878;18.040;2022-07-23T07:43:37;12.10;;;7.70;;
49296;SDS011;35163;48.878;18.040;2022-07-23T07:46:03;18.10;;;9.52;;
49296;SDS011;35163;48.878;18.040;2022-07-23T07:48:30;13.55;;;7.55;;
49296;SDS011;35163;48.878;18.040;2022-07-23T07:50:57;12.93;;;7.65;;
49296;SDS011;35163;48.878;18.040;2022-07-23T07:53:24;13.57;;;7.55;;
49296;SDS011;35163;48.878;18.040;2022-07-23T07:55:51;21.30;;;8.10;;
49296;SDS011;35163;48.878;18.040;2022-07-23T07:58:18;12.45;;;7.18;;
49296;SDS011;35163;48.878;18.040;2022-07-23T08:00:45;14.82;;;7.10;;
49296;SDS011;35163;48.878;18.040;2022-07-23T08:03:15;16.17;;;8.40;;
49296;SDS011;35163;48.878;18.040;2022-07-23T08:05:42;17.15;;;7.68;;
49296;SDS011;35163;48.878;18.040;2022-07-23T08:08:09;11.60;;;7.47;;
49296;SDS011;35163;48.878;18.040;2022-07-23T08:10:41;13.02;;;7.65;;
49296;SDS011;35163;48.878;18.040;2022-07-23T08:13:08;17.70;;;7.97;;
49296;SDS011;35163;48.878;18.040;2022-07-23T08:15:40;14.23;;;7.63;;
49296;SDS011;35163;48.878;18.040;2022-07-23T08:18:08;16.17;;;7.40;;
49296;SDS011;35163;48.878;18.040;2022-07-23T08:20:34;11.02;;;7.10;;
49296;SDS011;35163;48.878;18.040;2022-07-23T08:23:06;12.73;;;7.18;;
49296;SDS011;35163;48.878;18.040;2022-07-23T08:25:35;14.38;;;7.60;;
49296;SDS011;35163;48.878;18.040;2022-07-23T08:28:07;18.02;;;7.80;;
49296;SDS011;35163;48.878;18.040;2022-07-23T08:30:35;14.55;;;7.97;;
49296;SDS011;35163;48.878;18.040;2022-07-23T08:33:06;12.23;;;7.20;;
49296;SDS011;35163;48.878;18.040;2022-07-23T08:35:56;17.60;;;7.97;;
49296;SDS011;35163;48.878;18.040;2022-07-23T08:38:24;14.75;;;8.35;;
49296;SDS011;35163;48.878;18.040;2022-07-23T08:40:52;15.25;;;8.35;;
49296;SDS011;35163;48.878;18.040;2022-07-23T08:43:21;12.93;;;7.63;;
49296;SDS011;35163;48.878;18.040;2022-07-23T08:45:50;15.48;;;7.80;;
49296;SDS011;35163;48.878;18.040;2022-07-23T08:48:19;12.02;;;6.93;;
49296;SDS011;35163;48.878;18.040;2022-07-23T08:50:53;14.70;;;6.95;;
49296;SDS011;35163;48.878;18.040;2022-07-23T08:53:23;14.20;;;7.28;;
49296;SDS011;35163;48.878;18.040;2022-07-23T08:55:52;11.32;;;6.25;;
49296;SDS011;35163;48.878;18.040;2022-07-23T08:58:23;11.35;;;6.97;;
49296;SDS011;35163;48.878;18.040;2022-07-23T09:00:54;12.60;;;6.25;;
49296;SDS011;35163;48.878;18.040;2022-07-23T09:06:01;11.68;;;6.75;;
49296;SDS011;35163;48.878;18.040;2022-07-23T09:08:35;16.05;;;6.60;;
49296;SDS011;35163;48.878;18.040;2022-07-23T09:11:07;11.20;;;6.38;;
49296;SDS011;35163;48.878;18.040;2022-07-23T09:21:07;12.20;;;6.72;;
49296;SDS011;35163;48.878;18.040;2022-07-23T09:23:36;17.85;;;6.68;;
49296;SDS011;35163;48.878;18.040;2022-07-23T09:26:16;16.50;;;6.70;;
49296;SDS011;35163;48.878;18.040;2022-07-23T09:28:50;13.45;;;6.53;;
49296;SDS011;35163;48.878;18.040;2022-07-23T09:31:18;13.25;;;5.82;;
49296;SDS011;35163;48.878;18.040;2022-07-23T09:33:46;12.32;;;6.15;;
49296;SDS011;35163;48.878;18.040;2022-07-23T09:36:13;12.05;;;6.22;;
49296;SDS011;35163;48.878;18.040;2022-07-23T09:38:49;12.68;;;6.18;;
49296;SDS011;35163;48.878;18.040;2022-07-23T09:41:17;11.40;;;6.10;;
49296;SDS011;35163;48.878;18.040;2022-07-23T09:43:43;9.90;;;6.05;;
49296;SDS011;35163;48.878;18.040;2022-07-23T09:46:19;10.35;;;5.80;;
49296;SDS011;35163;48.878;18.040;2022-07-23T09:48:51;14.60;;;6.35;;
49296;SDS011;35163;48.878;18.040;2022-07-23T09:51:19;19.25;;;6.18;;
49296;SDS011;35163;48.878;18.040;2022-07-23T09:54:04;14.05;;;6.18;;
49296;SDS011;35163;48.878;18.040;2022-07-23T09:56:31;13.10;;;5.70;;
49296;SDS011;35163;48.878;18.040;2022-07-23T09:59:02;12.82;;;6.15;;
49296;SDS011;35163;48.878;18.040;2022-07-23T10:01:55;13.60;;;5.68;;
49296;SDS011;35163;48.878;18.040;2022-07-23T10:04:23;17.20;;;6.85;;
49296;SDS011;35163;48.878;18.040;2022-07-23T10:06:51;9.23;;;5.50;;
49296;SDS011;35163;48.878;18.040;2022-07-23T10:09:25;9.98;;;5.95;;
49296;SDS011;35163;48.878;18.040;2022-07-23T10:11:57;11.90;;;5.55;;
49296;SDS011;35163;48.878;18.040;2022-07-23T10:14:41;9.88;;;6.25;;
49296;SDS011;35163;48.878;18.040;2022-07-23T10:17:08;12.23;;;5.82;;
49296;SDS011;35163;48.878;18.040;2022-07-23T10:19:35;10.45;;;6.07;;
49296;SDS011;35163;48.878;18.040;2022-07-23T10:22:03;13.52;;;6.18;;
49296;SDS011;35163;48.878;18.040;2022-07-23T10:24:39;14.73;;;5.45;;
49296;SDS011;35163;48.878;18.040;2022-07-23T10:30:00;10.50;;;5.22;;
49296;SDS011;35163;48.878;18.040;2022-07-23T10:35:55;10.90;;;5.50;;
49296;SDS011;35163;48.878;18.040;2022-07-23T10:38:51;9.93;;;5.28;;
49296;SDS011;35163;48.878;18.040;2022-07-23T10:41:34;11.93;;;5.60;;
49296;SDS011;35163;48.878;18.040;2022-07-23T10:44:06;10.02;;;5.60;;
49296;SDS011;35163;48.878;18.040;2022-07-23T10:46:53;12.73;;;5.30;;
49296;SDS011;35163;48.878;18.040;2022-07-23T10:49:41;10.50;;;5.13;;
49296;SDS011;35163;48.878;18.040;2022-07-23T10:54:40;9.30;;;5.05;;
49296;SDS011;35163;48.878;18.040;2022-07-23T10:57:09;14.27;;;4.68;;
49296;SDS011;35163;48.878;18.040;2022-07-23T11:02:35;12.27;;;4.70;;
49296;SDS011;35163;48.878;18.040;2022-07-23T11:05:04;12.18;;;4.55;;
49296;SDS011;35163;48.878;18.040;2022-07-23T11:07:36;12.57;;;4.50;;
49296;SDS011;35163;48.878;18.040;2022-07-23T11:11:07;9.98;;;5.00;;
49296;SDS011;35163;48.878;18.040;2022-07-23T11:16:05;10.32;;;4.85;;
49296;SDS011;35163;48.878;18.040;2022-07-23T11:37:04;9.30;;;3.80;;
49296;SDS011;35163;48.878;18.040;2022-07-23T11:39:36;7.10;;;4.10;;
49296;SDS011;35163;48.878;18.040;2022-07-23T11:42:05;12.25;;;4.25;;
49296;SDS011;35163;48.878;18.040;2022-07-23T11:44:37;7.15;;;4.05;;
49296;SDS011;35163;48.878;18.040;2022-07-23T11:47:06;9.20;;;4.07;;
49296;SDS011;35163;48.878;18.040;2022-07-23T11:49:34;12.77;;;4.68;;
49296;SDS011;35163;48.878;18.040;2022-07-23T11:52:05;12.43;;;4.30;;
49296;SDS011;35163;48.878;18.040;2022-07-23T11:57:30;9.32;;;3.80;;
49296;SDS011;35163;48.878;18.040;2022-07-23T12:00:07;6.80;;;4.07;;
49296;SDS011;35163;48.878;18.040;2022-07-23T12:02:41;8.68;;;3.95;;
49296;SDS011;35163;48.878;18.040;2022-07-23T12:05:17;14.63;;;4.97;;
49296;SDS011;35163;48.878;18.040;2022-07-23T12:07:46;7.40;;;4.28;;
49296;SDS011;35163;48.878;18.040;2022-07-23T12:10:21;10.02;;;4.43;;
49296;SDS011;35163;48.878;18.040;2022-07-23T12:13:15;8.77;;;4.05;;
49296;SDS011;35163;48.878;18.040;2022-07-23T12:15:47;10.65;;;4.53;;
49296;SDS011;35163;48.878;18.040;2022-07-23T12:18:16;9.10;;;4.25;;
49296;SDS011;35163;48.878;18.040;2022-07-23T12:20:47;13.95;;;4.68;;
49296;SDS011;35163;48.878;18.040;2022-07-23T12:23:16;13.30;;;5.25;;
49296;SDS011;35163;48.878;18.040;2022-07-23T12:25:46;7.72;;;4.25;;
49296;SDS011;35163;48.878;18.040;2022-07-23T12:28:15;14.80;;;5.25;;
49296;SDS011;35163;48.878;18.040;2022-07-23T12:30:51;11.50;;;4.53;;
49296;SDS011;35163;48.878;18.040;2022-07-23T12:35:55;9.25;;;5.05;;
49296;SDS011;35163;48.878;18.040;2022-07-23T12:38:25;9.55;;;4.90;;
49296;SDS011;35163;48.878;18.040;2022-07-23T12:40:55;8.02;;;4.85;;
49296;SDS011;35163;48.878;18.040;2022-07-23T12:45:56;11.15;;;5.00;;
49296;SDS011;35163;48.878;18.040;2022-07-23T12:48:40;9.15;;;4.63;;
49296;SDS011;35163;48.878;18.040;2022-07-23T12:51:23;14.00;;;5.28;;
49296;SDS011;35163;48.878;18.040;2022-07-23T12:53:54;11.20;;;4.78;;
49296;SDS011;35163;48.878;18.040;2022-07-23T12:56:33;15.02;;;6.70;;
49296;SDS011;35163;48.878;18.040;2022-07-23T13:01:32;7.88;;;4.30;;
49296;SDS011;35163;48.878;18.040;2022-07-23T13:06:42;6.85;;;4.18;;
49296;SDS011;35163;48.878;18.040;2022-07-23T13:09:16;7.68;;;4.18;;
49296;SDS011;35163;48.878;18.040;2022-07-23T13:11:44;8.70;;;3.92;;
49296;SDS011;35163;48.878;18.040;2022-07-23T13:14:13;8.20;;;3.75;;
49296;SDS011;35163;48.878;18.040;2022-07-23T13:16:41;8.02;;;3.70;;
49296;SDS011;35163;48.878;18.040;2022-07-23T13:19:08;6.00;;;3.80;;
49296;SDS011;35163;48.878;18.040;2022-07-23T13:21:37;13.82;;;4.43;;
49296;SDS011;35163;48.878;18.040;2022-07-23T13:24:04;14.85;;;4.10;;
49296;SDS011;35163;48.878;18.040;2022-07-23T13:26:34;12.30;;;4.20;;
49296;SDS011;35163;48.878;18.040;2022-07-23T13:29:01;8.68;;;3.85;;
49296;SDS011;35163;48.878;18.040;2022-07-23T13:31:30;7.25;;;4.47;;
49296;SDS011;35163;48.878;18.040;2022-07-23T13:33:57;13.60;;;4.35;;
49296;SDS011;35163;48.878;18.040;2022-07-23T13:36:23;12.05;;;4.43;;
49296;SDS011;35163;48.878;18.040;2022-07-23T13:38:50;10.38;;;4.25;;
49296;SDS011;35163;48.878;18.040;2022-07-23T13:41:17;8.93;;;4.10;;
49296;SDS011;35163;48.878;18.040;2022-07-23T13:43:44;10.23;;;4.32;;
49296;SDS011;35163;48.878;18.040;2022-07-23T13:46:12;8.63;;;4.13;;
49296;SDS011;35163;48.878;18.040;2022-07-23T13:48:39;12.75;;;4.38;;
49296;SDS011;35163;48.878;18.040;2022-07-23T13:51:07;11.52;;;4.53;;
49296;SDS011;35163;48.878;18.040;2022-07-23T13:53:36;10.02;;;4.40;;
49296;SDS011;35163;48.878;18.040;2022-07-23T13:56:03;10.07;;;5.30;;
49296;SDS011;35163;48.878;18.040;2022-07-23T13:58:30;16.30;;;6.75;;
49296;SDS011;35163;48.878;18.040;2022-07-23T14:00:57;16.23;;;5.35;;
49296;SDS011;35163;48.878;18.040;2022-07-23T14:03:24;9.48;;;5.93;;
49296;SDS011;35163;48.878;18.040;2022-07-23T14:05:53;10.23;;;6.18;;
49296;SDS011;35163;48.878;18.040;2022-07-23T14:08:39;13.90;;;6.32;;
49296;SDS011;35163;48.878;18.040;2022-07-23T14:11:06;11.25;;;5.50;;
49296;SDS011;35163;48.878;18.040;2022-07-23T14:13:33;12.32;;;5.38;;
49296;SDS011;35163;48.878;18.040;2022-07-23T14:15:59;11.85;;;6.07;;
49296;SDS011;35163;48.878;18.040;2022-07-23T14:18:26;13.50;;;6.30;;
49296;SDS011;35163;48.878;18.040;2022-07-23T14:20:59;11.15;;;5.53;;
49296;SDS011;35163;48.878;18.040;2022-07-23T14:23:25;15.07;;;5.75;;
49296;SDS011;35163;48.878;18.040;2022-07-23T14:25:52;14.20;;;5.07;;
49296;SDS011;35163;48.878;18.040;2022-07-23T14:28:19;14.07;;;5.82;;
49296;SDS011;35163;48.878;18.040;2022-07-23T14:30:46;9.82;;;5.35;;
49296;SDS011;35163;48.878;18.040;2022-07-23T14:33:13;18.45;;;5.70;;
49296;SDS011;35163;48.878;18.040;2022-07-23T14:35:42;14.18;;;5.35;;
49296;SDS011;35163;48.878;18.040;2022-07-23T14:38:09;16.92;;;5.30;;
49296;SDS011;35163;48.878;18.040;2022-07-23T14:40:39;11.43;;;5.63;;
49296;SDS011;35163;48.878;18.040;2022-07-23T14:43:06;12.82;;;5.53;;
49296;SDS011;35163;48.878;18.040;2022-07-23T14:45:36;10.07;;;5.47;;
49296;SDS011;35163;48.878;18.040;2022-07-23T14:48:03;7.50;;;4.90;;
49296;SDS011;35163;48.878;18.040;2022-07-23T14:50:30;17.95;;;5.43;;
49296;SDS011;35163;48.878;18.040;2022-07-23T14:52:57;11.52;;;5.25;;
49296;SDS011;35163;48.878;18.040;2022-07-23T14:55:23;11.00;;;4.85;;
49296;SDS011;35163;48.878;18.040;2022-07-23T14:57:50;12.32;;;5.15;;
49296;SDS011;35163;48.878;18.040;2022-07-23T15:00:18;11.98;;;4.75;;
49296;SDS011;35163;48.878;18.040;2022-07-23T15:02:49;6.85;;;4.75;;
49296;SDS011;35163;48.878;18.040;2022-07-23T15:05:20;10.30;;;4.75;;
49296;SDS011;35163;48.878;18.040;2022-07-23T15:07:47;8.35;;;4.80;;
49296;SDS011;35163;48.878;18.040;2022-07-23T15:10:14;8.30;;;4.40;;
49296;SDS011;35163;48.878;18.040;2022-07-23T15:12:45;16.85;;;6.03;;
49296;SDS011;35163;48.878;18.040;2022-07-23T15:15:12;12.18;;;4.80;;
49296;SDS011;35163;48.878;18.040;2022-07-23T15:17:41;13.10;;;5.13;;
49296;SDS011;35163;48.878;18.040;2022-07-23T15:20:08;19.67;;;9.15;;
49296;SDS011;35163;48.878;18.040;2022-07-23T15:22:36;10.73;;;5.40;;
49296;SDS011;35163;48.878;18.040;2022-07-23T15:25:02;12.98;;;5.05;;
49296;SDS011;35163;48.878;18.040;2022-07-23T15:27:30;9.13;;;5.07;;